Time;durP1;ratioP1;P1;durP2;ratioP2;P2;SDS_P1;SDS_P2;PMS_P1;PMS_P2;Temp;Humidity;BMP_temperature;BMP_pressure;BME280_temperature;BME280_humidity;BME280_pressure;Samples;Min_cycle;Max_cycle;Signal;HPM_P1;HPM_P2
2023/04/30 00:01:38;;;;;;;26.75;14.20;;;18.60;99.20;;;;;;5094315;28;20059;-74
2023/04/30 00:04:42;;;;;;;25.52;14.40;;;18.50;99.10;;;;;;5094292;28;20086;-74
2023/04/30 00:07:46;;;;;;;28.52;13.90;;;18.60;99.20;;;;;;5094255;28;20384;-75
2023/04/30 00:10:50;;;;;;;24.42;14.45;;;18.40;99.10;;;;;;5094212;28;20043;-75
2023/04/30 00:13:55;;;;;;;34.33;14.43;;;18.30;99.10;;;;;;5094257;28;20391;-75
2023/04/30 00:17:00;;;;;;;30.17;14.57;;;18.20;99.40;;;;;;5093128;28;20054;-75
2023/04/30 00:20:04;;;;;;;32.28;15.65;;;18.20;99.50;;;;;;5081743;28;20047;-75
2023/04/30 00:23:08;;;;;;;32.05;16.73;;;18.10;99.90;;;;;;5093874;28;20063;-75
2023/04/30 00:26:12;;;;;;;33.65;16.45;;;18.00;99.70;;;;;;5093608;28;20055;-75
2023/04/30 00:29:18;;;;;;;33.92;16.98;;;18.00;99.90;;;;;;5093957;28;20047;-75
2023/04/30 00:32:22;;;;;;;42.65;17.02;;;18.00;99.90;;;;;;5093466;28;20043;-75
2023/04/30 00:35:25;;;;;;;30.60;16.23;;;17.90;99.90;;;;;;5093508;28;20051;-75
2023/04/30 00:38:29;;;;;;;35.15;16.17;;;17.90;99.90;;;;;;5093538;28;20039;-75
2023/04/30 00:41:37;;;;;;;30.65;14.55;;;17.90;99.90;;;;;;5092494;28;20047;-75
2023/04/30 00:44:41;;;;;;;35.55;15.23;;;17.90;99.90;;;;;;5092795;28;20051;-75
2023/04/30 00:47:45;;;;;;;29.38;16.35;;;17.90;99.90;;;;;;5093251;28;20395;-75
2023/04/30 00:50:49;;;;;;;27.25;15.52;;;17.90;99.90;;;;;;5093315;28;20383;-75
2023/04/30 00:53:53;;;;;;;33.38;15.18;;;17.90;99.90;;;;;;5092588;28;20340;-75
2023/04/30 00:56:57;;;;;;;28.15;15.23;;;17.80;99.90;;;;;;5092100;28;20047;-76
2023/04/30 01:00:02;;;;;;;29.85;16.45;;;17.90;99.90;;;;;;5092383;28;20518;-75
2023/04/30 01:03:07;;;;;;;27.60;14.65;;;17.90;99.90;;;;;;5091995;28;20059;-76
2023/04/30 01:06:11;;;;;;;31.17;17.50;;;17.90;99.90;;;;;;5092986;28;20035;-75
2023/04/30 01:09:15;;;;;;;28.67;15.90;;;17.90;99.90;;;;;;5092966;28;20051;-75
2023/04/30 01:12:40;;;;;;;27.50;15.50;;;17.90;99.90;;;;;;5092234;28;20047;-76
2023/04/30 01:15:54;;;;;;;27.40;15.27;;;17.80;99.90;;;;;;5092026;28;20064;-76
2023/04/30 01:19:26;;;;;;;26.70;13.80;;;17.70;99.50;;;;;;5092152;28;20652;-73
2023/04/30 01:22:54;;;;;;;28.23;15.88;;;17.50;99.50;;;;;;5091822;28;20067;-76
2023/04/30 01:26:03;;;;;;;28.15;14.23;;;17.40;99.60;;;;;;5092160;28;20403;-76
2023/04/30 01:29:11;;;;;;;31.52;14.18;;;17.40;99.70;;;;;;5091978;28;20388;-76
2023/04/30 01:32:14;;;;;;;28.05;14.18;;;17.30;99.70;;;;;;5092674;28;20035;-76
2023/04/30 01:35:18;;;;;;;25.02;14.07;;;17.30;99.80;;;;;;5092336;28;20047;-75
2023/04/30 01:38:52;;;;;;;31.48;14.20;;;17.20;99.90;;;;;;5092584;28;20043;-75
2023/04/30 01:42:05;;;;;;;20.27;13.43;;;17.20;99.90;;;;;;5091703;28;20067;-75
2023/04/30 01:45:18;;;;;;;19.88;13.70;;;17.20;99.90;;;;;;5091403;28;20071;-75
2023/04/30 01:48:37;;;;;;;21.23;13.82;;;17.20;99.90;;;;;;5091651;28;20043;-75
2023/04/30 01:51:44;;;;;;;24.52;13.73;;;17.10;99.90;;;;;;5091595;28;20051;-75
2023/04/30 01:54:55;;;;;;;30.50;13.63;;;17.00;99.90;;;;;;5092082;28;20047;-75
2023/04/30 01:58:01;;;;;;;24.67;13.02;;;17.00;99.90;;;;;;5091822;28;20047;-75
2023/04/30 02:01:05;;;;;;;24.33;14.10;;;17.10;99.90;;;;;;5092078;28;20051;-75
2023/04/30 02:04:09;;;;;;;24.25;14.07;;;17.10;99.90;;;;;;5092092;28;20419;-74
2023/04/30 02:07:25;;;;;;;20.00;12.15;;;17.10;99.90;;;;;;5091024;28;20396;-75
2023/04/30 02:10:29;;;;;;;21.55;12.73;;;17.20;99.90;;;;;;5090792;28;20038;-75
2023/04/30 02:13:33;;;;;;;27.50;13.48;;;17.20;99.90;;;;;;5090784;28;20115;-76
2023/04/30 02:16:37;;;;;;;25.25;13.63;;;17.10;99.90;;;;;;5090637;28;20399;-74
2023/04/30 02:19:41;;;;;;;26.55;13.77;;;17.10;99.90;;;;;;5090665;28;20502;-74
2023/04/30 02:22:45;;;;;;;19.98;13.60;;;17.00;99.90;;;;;;5090705;28;20051;-75
2023/04/30 02:25:49;;;;;;;28.02;13.75;;;17.10;99.90;;;;;;5091097;28;20490;-75
2023/04/30 02:28:53;;;;;;;25.17;13.77;;;17.00;99.90;;;;;;5090826;28;20051;-75
2023/04/30 02:32:00;;;;;;;27.73;14.10;;;17.10;99.90;;;;;;5090736;28;20507;-75
2023/04/30 02:35:05;;;;;;;31.75;14.57;;;17.10;99.90;;;;;;5091617;28;20047;-75
2023/04/30 02:38:09;;;;;;;28.30;15.60;;;17.10;99.90;;;;;;5090584;28;20043;-75
2023/04/30 02:41:13;;;;;;;31.45;15.88;;;17.00;99.90;;;;;;5090764;28;20059;-75
2023/04/30 02:44:17;;;;;;;31.60;16.90;;;17.00;99.90;;;;;;5090775;28;20051;-76
2023/04/30 02:47:21;;;;;;;31.08;16.85;;;17.00;99.90;;;;;;5090591;28;20046;-75
2023/04/30 02:50:25;;;;;;;31.83;18.10;;;16.90;99.90;;;;;;5091468;28;20039;-75
2023/04/30 02:53:29;;;;;;;35.80;17.45;;;17.00;99.90;;;;;;5090376;28;20406;-75
2023/04/30 02:56:33;;;;;;;29.60;17.60;;;16.90;99.90;;;;;;5091110;28;20050;-75
2023/04/30 02:59:37;;;;;;;28.88;18.42;;;16.80;99.90;;;;;;5091394;28;20043;-75
2023/04/30 03:02:41;;;;;;;30.60;17.55;;;16.80;99.90;;;;;;5090218;28;20423;-75
2023/04/30 03:05:46;;;;;;;30.77;19.10;;;16.80;99.90;;;;;;5091169;28;20063;-75
2023/04/30 03:08:49;;;;;;;32.97;19.08;;;16.90;99.90;;;;;;5090417;28;20387;-75
2023/04/30 03:11:53;;;;;;;32.72;16.77;;;17.00;99.90;;;;;;5091013;28;20047;-76
2023/04/30 03:14:57;;;;;;;27.73;17.55;;;17.00;99.90;;;;;;5091105;28;20506;-75
2023/04/30 03:18:02;;;;;;;26.75;16.40;;;16.80;99.90;;;;;;5090317;28;20058;-75
2023/04/30 03:21:06;;;;;;;32.53;17.45;;;16.90;99.90;;;;;;5091195;28;20043;-75
2023/04/30 03:24:10;;;;;;;28.40;17.02;;;16.80;99.90;;;;;;5089863;28;20051;-75
2023/04/30 03:27:15;;;;;;;31.35;17.27;;;16.80;99.90;;;;;;5090538;28;20059;-75
2023/04/30 03:30:20;;;;;;;26.13;16.95;;;16.80;99.90;;;;;;5090157;28;20043;-75
2023/04/30 03:33:24;;;;;;;29.50;16.77;;;16.80;99.90;;;;;;5090916;28;20047;-75
2023/04/30 03:36:27;;;;;;;31.27;17.77;;;16.60;99.90;;;;;;5090711;28;20514;-75
2023/04/30 03:39:32;;;;;;;27.92;17.85;;;16.70;99.90;;;;;;5090818;28;20047;-75
2023/04/30 03:42:35;;;;;;;29.75;17.20;;;16.60;99.90;;;;;;5090539;28;20051;-75
2023/04/30 03:45:39;;;;;;;30.38;18.40;;;16.60;99.90;;;;;;5089856;28;20047;-75
2023/04/30 03:48:43;;;;;;;39.05;18.90;;;16.60;99.90;;;;;;5089667;28;20392;-75
2023/04/30 03:51:47;;;;;;;32.53;18.52;;;16.60;99.90;;;;;;5089542;28;20596;-76
2023/04/30 03:54:51;;;;;;;31.35;18.08;;;16.60;99.90;;;;;;5089538;28;20407;-75
2023/04/30 03:57:57;;;;;;;32.38;19.42;;;16.60;99.90;;;;;;5078018;28;20063;-76
2023/04/30 04:01:01;;;;;;;31.08;19.05;;;16.60;99.90;;;;;;5089611;28;20047;-76
2023/04/30 04:04:05;;;;;;;29.15;18.40;;;16.60;99.90;;;;;;5090203;28;20051;-76
2023/04/30 04:07:10;;;;;;;32.22;18.98;;;16.60;99.90;;;;;;5093577;28;20043;-75
2023/04/30 04:10:14;;;;;;;31.73;19.25;;;16.60;99.90;;;;;;5093620;28;20047;-75
2023/04/30 04:13:18;;;;;;;34.67;19.35;;;16.60;99.90;;;;;;5094537;28;20039;-75
2023/04/30 04:16:22;;;;;;;31.70;18.55;;;16.50;99.90;;;;;;5082034;28;20051;-75
2023/04/30 04:19:27;;;;;;;31.77;18.15;;;16.60;99.90;;;;;;5093718;28;20047;-77
2023/04/30 04:22:31;;;;;;;29.95;18.45;;;16.60;99.90;;;;;;5093713;28;20047;-76
2023/04/30 04:25:35;;;;;;;39.35;24.38;;;16.60;99.90;;;;;;5093606;28;20047;-76
2023/04/30 04:28:38;;;;;;;30.45;18.98;;;16.50;99.90;;;;;;5093300;28;20071;-76
2023/04/30 04:31:43;;;;;;;27.27;18.90;;;16.40;99.90;;;;;;5092992;28;20043;-76
2023/04/30 04:34:48;;;;;;;34.47;18.20;;;16.50;99.90;;;;;;5081361;28;20035;-75
2023/04/30 04:37:52;;;;;;;32.80;19.17;;;16.50;99.90;;;;;;5081074;28;20059;-76
2023/04/30 04:40:56;;;;;;;36.53;19.52;;;16.60;99.90;;;;;;5092655;28;20518;-76
2023/04/30 04:44:02;;;;;;;36.85;19.02;;;16.70;99.90;;;;;;5092466;28;20055;-74
2023/04/30 04:47:07;;;;;;;35.28;19.10;;;16.70;99.90;;;;;;5080948;28;20047;-75
2023/04/30 04:50:11;;;;;;;32.67;20.15;;;16.60;99.90;;;;;;5093297;28;20415;-76
2023/04/30 04:53:16;;;;;;;41.13;23.65;;;16.70;99.90;;;;;;5092598;28;20043;-77
2023/04/30 04:56:19;;;;;;;39.15;22.42;;;16.50;99.90;;;;;;5093017;28;20062;-76
2023/04/30 04:59:23;;;;;;;44.45;25.27;;;16.50;99.90;;;;;;5092488;28;20047;-76
2023/04/30 05:02:28;;;;;;;43.13;26.33;;;16.40;99.90;;;;;;5092405;28;20054;-75
2023/04/30 05:05:33;;;;;;;42.35;25.50;;;16.40;99.90;;;;;;5092228;28;20051;-74
2023/04/30 05:08:37;;;;;;;42.55;23.67;;;16.40;99.90;;;;;;5091992;28;20047;-75
2023/04/30 05:11:42;;;;;;;34.80;21.67;;;16.60;99.90;;;;;;5092203;28;20046;-77
2023/04/30 05:14:48;;;;;;;34.97;20.48;;;16.70;99.90;;;;;;5092770;28;20051;-76
2023/04/30 05:17:52;;;;;;;33.42;19.38;;;16.90;99.90;;;;;;5091969;28;20403;-74
2023/04/30 05:20:56;;;;;;;34.53;19.40;;;17.00;99.90;;;;;;5093022;28;20043;-76
2023/04/30 05:24:01;;;;;;;27.10;20.15;;;17.10;99.90;;;;;;5092598;28;20051;-75
2023/04/30 05:27:05;;;;;;;33.13;21.33;;;17.10;99.90;;;;;;5092317;28;20514;-76
2023/04/30 05:30:10;;;;;;;27.58;21.17;;;17.30;99.90;;;;;;5092851;28;20051;-74
2023/04/30 05:33:14;;;;;;;35.95;23.67;;;17.00;99.90;;;;;;5092413;28;20039;-75
2023/04/30 05:36:18;;;;;;;37.60;21.80;;;17.00;99.90;;;;;;5092425;28;20538;-75
2023/04/30 05:39:22;;;;;;;32.58;21.02;;;17.00;99.90;;;;;;5092416;28;20063;-76
2023/04/30 05:42:26;;;;;;;35.33;21.17;;;17.00;99.90;;;;;;5092165;28;20043;-75
2023/04/30 05:45:30;;;;;;;30.90;18.52;;;17.20;99.90;;;;;;5091615;28;20054;-75
2023/04/30 05:48:34;;;;;;;29.23;17.48;;;17.30;99.90;;;;;;5092419;28;20043;-74
2023/04/30 05:51:38;;;;;;;28.35;18.05;;;17.50;99.90;;;;;;5092176;28;20043;-75
2023/04/30 05:54:42;;;;;;;33.35;18.08;;;17.50;99.90;;;;;;5091906;28;20039;-75
2023/04/30 05:57:46;;;;;;;28.17;19.65;;;17.70;99.90;;;;;;5092322;28;20054;-77
2023/04/30 06:00:53;;;;;;;31.55;19.13;;;17.80;99.90;;;;;;5091935;28;20039;-75
2023/04/30 06:04:00;;;;;;;32.75;19.25;;;17.80;99.90;;;;;;5091824;28;20628;-75
2023/04/30 06:07:04;;;;;;;33.95;22.52;;;17.80;99.90;;;;;;5092125;28;20062;-75
2023/04/30 06:10:09;;;;;;;30.40;20.63;;;17.80;99.90;;;;;;5091091;28;20067;-76
2023/04/30 06:13:14;;;;;;;33.30;21.15;;;18.00;99.90;;;;;;5091966;28;20047;-75
2023/04/30 06:16:17;;;;;;;32.10;21.60;;;18.30;99.90;;;;;;5090750;28;20043;-76
2023/04/30 06:19:21;;;;;;;34.05;21.48;;;18.50;99.90;;;;;;5091799;28;20517;-76
2023/04/30 06:22:25;;;;;;;31.75;21.02;;;18.80;99.90;;;;;;5091792;28;20043;-77
2023/04/30 06:25:29;;;;;;;38.05;20.98;;;19.20;99.40;;;;;;5091517;28;20051;-76
2023/04/30 06:28:33;;;;;;;36.15;20.58;;;19.40;98.80;;;;;;5091747;28;20046;-75
2023/04/30 06:31:37;;;;;;;32.10;20.85;;;19.70;98.20;;;;;;5091764;28;20213;-76
2023/04/30 06:34:41;;;;;;;30.83;19.10;;;19.70;97.60;;;;;;5091296;28;20387;-76
2023/04/30 06:37:45;;;;;;;32.58;19.85;;;19.70;97.40;;;;;;5091540;28;20047;-76
2023/04/30 06:40:50;;;;;;;38.55;19.77;;;19.60;97.40;;;;;;5090749;28;20502;-75
2023/04/30 06:43:54;;;;;;;34.08;19.63;;;19.70;97.50;;;;;;5091691;28;20153;-76
2023/04/30 06:46:57;;;;;;;37.50;17.60;;;20.20;97.50;;;;;;5091443;28;20055;-77
2023/04/30 06:50:02;;;;;;;21.73;13.98;;;20.70;96.10;;;;;;5091523;28;20058;-76
2023/04/30 06:53:07;;;;;;;29.27;16.50;;;21.00;95.20;;;;;;5091359;28;20526;-77
2023/04/30 06:56:11;;;;;;;32.50;16.65;;;21.10;94.90;;;;;;5090966;28;20062;-75
2023/04/30 06:59:15;;;;;;;28.90;15.68;;;21.20;94.90;;;;;;5091532;28;20506;-76
2023/04/30 07:02:19;;;;;;;23.15;14.68;;;21.20;94.90;;;;;;5090637;28;20047;-78
2023/04/30 07:05:23;;;;;;;31.80;15.50;;;21.00;94.40;;;;;;5090775;28;20055;-81
2023/04/30 07:08:27;;;;;;;26.13;15.50;;;20.80;95.10;;;;;;5091215;28;20051;-81
2023/04/30 07:11:31;;;;;;;22.75;13.63;;;20.80;95.20;;;;;;5090212;28;20042;-77
2023/04/30 07:14:35;;;;;;;29.48;15.73;;;21.10;95.20;;;;;;5090819;28;20415;-79
2023/04/30 07:17:40;;;;;;;22.83;14.65;;;21.20;94.80;;;;;;5090757;28;20039;-80
2023/04/30 07:20:44;;;;;;;25.98;14.55;;;21.10;94.50;;;;;;5091036;28;20043;-80
2023/04/30 07:23:50;;;;;;;30.15;14.00;;;21.20;94.60;;;;;;5091640;28;20051;-80
2023/04/30 07:26:54;;;;;;;22.60;14.23;;;21.50;94.20;;;;;;5093609;28;20506;-82
2023/04/30 07:29:58;;;;;;;25.45;13.38;;;21.60;93.20;;;;;;5090881;28;20047;-80
2023/04/30 07:33:02;;;;;;;25.25;12.38;;;21.70;93.10;;;;;;5091274;28;20526;-79
2023/04/30 07:36:06;;;;;;;23.10;11.63;;;22.00;92.70;;;;;;5090758;28;20392;-80
2023/04/30 07:39:10;;;;;;;16.00;9.98;;;22.20;92.20;;;;;;5090148;28;20051;-80
2023/04/30 07:42:14;;;;;;;21.23;9.88;;;22.40;92.00;;;;;;5094878;28;20047;-79
2023/04/30 07:45:18;;;;;;;13.38;9.52;;;22.50;91.30;;;;;;5094513;28;20051;-80
2023/04/30 07:48:22;;;;;;;21.70;9.27;;;22.40;91.60;;;;;;5093536;28;20043;-80
2023/04/30 07:51:26;;;;;;;17.00;9.60;;;22.20;91.40;;;;;;5094462;28;20474;-80
2023/04/30 07:54:31;;;;;;;21.40;8.63;;;22.20;91.60;;;;;;5093967;28;20106;-82
2023/04/30 07:57:35;;;;;;;13.55;7.90;;;22.30;91.40;;;;;;5093852;28;20475;-80
2023/04/30 08:00:38;;;;;;;18.00;7.75;;;22.50;90.90;;;;;;5094374;28;20070;-80
2023/04/30 08:03:42;;;;;;;15.15;7.53;;;22.70;90.80;;;;;;5094155;28;20153;-78
2023/04/30 08:06:46;;;;;;;17.15;8.48;;;23.10;90.60;;;;;;5094176;28;20400;-80
2023/04/30 08:09:50;;;;;;;20.25;10.15;;;23.60;90.40;;;;;;5094163;28;20422;-76
2023/04/30 08:12:54;;;;;;;18.23;8.80;;;23.80;89.80;;;;;;5094315;28;20043;-80
2023/04/30 08:15:58;;;;;;;11.77;7.05;;;23.80;88.70;;;;;;5093891;28;20043;-79
2023/04/30 08:19:02;;;;;;;12.32;6.28;;;23.70;87.50;;;;;;5093822;28;20039;-78
2023/04/30 08:22:06;;;;;;;15.60;7.18;;;23.90;86.40;;;;;;5094145;28;20047;-79
2023/04/30 08:25:11;;;;;;;11.18;5.65;;;24.30;85.90;;;;;;5092996;28;20051;-79
2023/04/30 08:28:15;;;;;;;14.25;6.15;;;24.50;85.00;;;;;;5094746;28;20059;-79
2023/04/30 08:31:19;;;;;;;27.67;6.53;;;24.50;83.70;;;;;;5094030;28;20482;-82
2023/04/30 08:34:23;;;;;;;12.00;6.10;;;24.60;83.70;;;;;;5094225;28;20051;-80
2023/04/30 08:37:27;;;;;;;10.25;5.38;;;24.40;83.70;;;;;;5093801;28;20047;-81
2023/04/30 08:40:35;;;;;;;11.65;5.97;;;24.40;83.80;;;;;;5093815;28;20043;-79
2023/04/30 08:43:40;;;;;;;13.45;5.15;;;24.20;84.50;;;;;;5095360;28;20055;-83
2023/04/30 08:46:45;;;;;;;9.70;5.65;;;24.00;83.40;;;;;;5096938;28;20043;-82
2023/04/30 08:49:49;;;;;;;12.30;5.68;;;24.00;83.40;;;;;;5093480;28;20066;-80
2023/04/30 08:52:53;;;;;;;12.93;6.38;;;24.00;83.60;;;;;;5092504;28;20055;-78
2023/04/30 08:55:58;;;;;;;8.82;5.45;;;24.20;83.30;;;;;;5094431;28;20043;-81
2023/04/30 08:59:01;;;;;;;8.77;5.28;;;24.50;83.50;;;;;;5096700;28;20035;-82
2023/04/30 09:02:05;;;;;;;12.48;5.28;;;24.60;82.10;;;;;;5093173;28;20039;-78
2023/04/30 09:05:11;;;;;;;12.23;5.28;;;24.90;82.00;;;;;;5096008;28;20059;-83
2023/04/30 09:08:18;;;;;;;12.93;5.25;;;24.90;80.70;;;;;;5093554;28;20043;-80
2023/04/30 09:11:27;;;;;;;9.02;4.80;;;24.80;80.80;;;;;;5095497;28;20046;-80
2023/04/30 09:14:32;;;;;;;9.45;5.18;;;24.60;80.80;;;;;;5093358;28;20494;-81
2023/04/30 09:17:37;;;;;;;11.18;5.60;;;24.30;81.90;;;;;;5095690;28;20054;-81
2023/04/30 09:20:57;;;;;;;9.05;5.13;;;24.30;82.20;;;;;;5094639;28;20174;-79
2023/04/30 09:24:03;;;;;;;10.38;5.68;;;24.30;82.20;;;;;;5093371;28;20059;-80
2023/04/30 09:27:18;;;;;;;8.65;5.57;;;24.40;82.00;;;;;;5091828;28;20051;-82
2023/04/30 09:30:32;;;;;;;11.90;5.38;;;24.40;82.50;;;;;;5093426;28;20043;-83
2023/04/30 09:33:46;;;;;;;6.95;4.57;;;24.30;81.90;;;;;;5092560;28;20047;-79
2023/04/30 09:36:54;;;;;;;16.77;4.95;;;24.30;81.70;;;;;;5093049;28;20035;-80
2023/04/30 09:39:58;;;;;;;9.15;4.65;;;24.30;82.20;;;;;;5092363;28;20051;-79
2023/04/30 09:43:03;;;;;;;11.82;4.97;;;24.20;82.90;;;;;;5093281;28;20047;-83
2023/04/30 09:46:06;;;;;;;8.88;4.78;;;24.20;82.80;;;;;;5093855;28;20050;-82
2023/04/30 09:49:10;;;;;;;12.32;4.18;;;24.30;83.50;;;;;;5092253;28;20106;-80
2023/04/30 09:52:15;;;;;;;9.88;5.05;;;24.40;82.90;;;;;;5093380;28;20149;-82
2023/04/30 09:55:21;;;;;;;10.07;5.25;;;24.30;82.70;;;;;;5093213;28;20043;-80
2023/04/30 09:58:27;;;;;;;10.13;4.63;;;24.10;82.80;;;;;;5092535;28;20070;-83
2023/04/30 10:01:32;;;;;;;12.70;5.65;;;24.00;83.40;;;;;;5093333;28;20102;-81
2023/04/30 10:04:40;;;;;;;11.65;5.63;;;24.00;83.50;;;;;;5092619;28;20055;-84
2023/04/30 10:07:45;;;;;;;10.80;4.95;;;23.90;83.20;;;;;;5095517;28;20051;-82
2023/04/30 10:11:02;;;;;;;11.57;5.47;;;23.80;82.70;;;;;;5094754;28;20047;-80
2023/04/30 10:14:11;;;;;;;10.52;5.25;;;23.80;83.70;;;;;;5095163;28;20047;-83
2023/04/30 10:17:17;;;;;;;10.45;4.85;;;23.90;83.60;;;;;;5093054;28;20043;-81
2023/04/30 10:20:22;;;;;;;6.90;4.40;;;23.90;83.40;;;;;;5095073;28;20403;-80
2023/04/30 10:23:29;;;;;;;9.57;4.63;;;23.90;83.50;;;;;;5096839;28;20040;-82
2023/04/30 10:26:32;;;;;;;9.45;5.10;;;24.00;83.20;;;;;;5094630;28;20075;-77
2023/04/30 10:29:36;;;;;;;8.25;5.05;;;24.00;83.50;;;;;;5099811;28;20039;-81
2023/04/30 10:32:52;;;;;;;9.55;5.00;;;24.00;83.30;;;;;;5094894;28;20541;-82
2023/04/30 10:36:00;;;;;;;11.50;5.38;;;23.90;83.50;;;;;;5096318;28;20047;-83
2023/04/30 10:39:05;;;;;;;9.52;5.10;;;23.90;84.20;;;;;;5098124;28;20043;-79
2023/04/30 10:42:10;;;;;;;8.77;4.45;;;23.80;84.60;;;;;;5095147;28;20392;-80
2023/04/30 10:45:16;;;;;;;9.15;5.03;;;23.60;84.10;;;;;;5093555;28;20059;-81
2023/04/30 10:48:25;;;;;;;8.43;4.97;;;23.40;84.40;;;;;;5092615;28;20557;-82
2023/04/30 10:51:57;;;;;;;8.32;4.47;;;23.40;84.30;;;;;;5091673;28;20046;-81
2023/04/30 10:55:06;;;;;;;12.52;4.50;;;23.50;85.00;;;;;;5081975;28;20039;-79
2023/04/30 10:58:30;;;;;;;9.43;4.88;;;23.50;85.00;;;;;;5095124;28;20051;-81
2023/04/30 11:01:54;;;;;;;9.15;4.53;;;23.50;84.50;;;;;;5091521;28;20039;-83
2023/04/30 11:05:12;;;;;;;8.52;4.38;;;23.50;85.00;;;;;;5095631;28;20051;-81
2023/04/30 11:08:19;;;;;;;11.80;4.90;;;23.30;84.90;;;;;;5096840;28;20039;-84
2023/04/30 11:11:24;;;;;;;6.40;4.93;;;23.20;85.40;;;;;;5095678;28;20502;-84
2023/04/30 11:14:31;;;;;;;13.02;5.25;;;23.10;85.80;;;;;;5096997;28;20399;-84
2023/04/30 11:17:37;;;;;;;15.35;4.85;;;23.00;86.50;;;;;;5095987;28;20506;-78
2023/04/30 11:20:48;;;;;;;9.10;4.82;;;22.90;87.00;;;;;;5098970;28;20046;-81
2023/04/30 11:24:01;;;;;;;8.20;4.63;;;22.90;86.70;;;;;;5099301;28;20047;-81
2023/04/30 11:27:05;;;;;;;12.15;5.47;;;22.90;87.60;;;;;;5095321;28;20058;-79
2023/04/30 11:30:14;;;;;;;6.05;4.80;;;22.80;88.10;;;;;;5095068;28;20047;-79
2023/04/30 11:33:20;;;;;;;12.88;6.82;;;22.80;88.10;;;;;;5094474;28;20047;-80
2023/04/30 11:36:25;;;;;;;16.88;8.25;;;22.80;88.60;;;;;;5095051;28;20055;-80
2023/04/30 11:39:32;;;;;;;12.80;7.72;;;22.80;88.00;;;;;;5094856;28;20054;-79
2023/04/30 11:42:40;;;;;;;12.68;6.30;;;22.80;87.60;;;;;;5097081;28;20051;-83
2023/04/30 11:46:17;;;;;;;10.48;4.75;;;22.80;88.20;;;;;;5101235;28;20051;-83
2023/04/30 11:49:22;;;;;;;18.65;4.55;;;22.80;87.90;;;;;;5096783;28;20103;-83
2023/04/30 11:52:26;;;;;;;8.88;4.57;;;22.70;88.10;;;;;;5094839;28;20051;-79
2023/04/30 11:55:30;;;;;;;10.75;4.75;;;22.70;88.30;;;;;;5096106;28;20495;-80
2023/04/30 11:58:38;;;;;;;6.22;4.25;;;22.70;88.60;;;;;;5097714;28;20047;-82
2023/04/30 12:01:42;;;;;;;10.20;4.80;;;22.60;88.40;;;;;;5096379;28;20039;-80
2023/04/30 12:04:47;;;;;;;7.63;4.55;;;22.60;88.80;;;;;;5099347;28;20407;-83
2023/04/30 12:08:03;;;;;;;11.32;4.38;;;22.50;88.40;;;;;;5098010;28;20054;-82
2023/04/30 12:11:24;;;;;;;6.43;4.25;;;22.50;89.20;;;;;;5096881;28;20044;-82
2023/04/30 12:14:32;;;;;;;10.27;4.57;;;22.50;89.00;;;;;;5098812;28;20047;-81
2023/04/30 12:17:36;;;;;;;5.53;4.32;;;22.60;89.10;;;;;;5098969;28;20039;-83
2023/04/30 12:20:40;;;;;;;8.00;4.00;;;22.50;88.70;;;;;;5099478;28;20506;-84
2023/04/30 12:23:45;;;;;;;6.53;3.85;;;22.50;89.10;;;;;;5098959;28;20039;-83
2023/04/30 12:26:52;;;;;;;6.82;3.95;;;22.50;89.10;;;;;;5097443;28;20047;-82
2023/04/30 12:30:01;;;;;;;6.50;3.75;;;22.50;88.80;;;;;;5097723;28;20502;-81
2023/04/30 12:33:09;;;;;;;8.05;4.28;;;22.70;88.40;;;;;;5097265;28;20043;-80
2023/04/30 12:36:12;;;;;;;6.65;4.18;;;22.80;88.60;;;;;;5096430;28;20047;-80
2023/04/30 12:39:16;;;;;;;8.57;3.50;;;22.90;87.80;;;;;;5094289;28;20040;-83
2023/04/30 12:42:20;;;;;;;8.90;4.53;;;23.00;87.60;;;;;;5095229;28;20416;-83
2023/04/30 12:45:43;;;;;;;6.45;4.43;;;23.10;87.30;;;;;;5094505;28;20407;-82
2023/04/30 12:48:47;;;;;;;6.03;4.13;;;23.10;87.00;;;;;;5095801;28;20043;-82
2023/04/30 12:51:51;;;;;;;7.20;3.75;;;23.20;87.90;;;;;;5095108;28;20039;-80
2023/04/30 12:54:55;;;;;;;5.80;3.80;;;23.20;87.30;;;;;;5093359;28;20541;-81
2023/04/30 12:58:12;;;;;;;5.32;4.32;;;23.10;87.30;;;;;;5094016;28;20039;-80
2023/04/30 13:01:23;;;;;;;9.35;4.22;;;23.00;86.70;;;;;;5094423;28;20047;-81
2023/04/30 13:04:28;;;;;;;7.50;3.75;;;23.00;87.80;;;;;;5094763;28;20051;-82
2023/04/30 13:07:38;;;;;;;4.38;3.83;;;23.00;87.80;;;;;;5094066;28;20503;-82
2023/04/30 13:10:43;;;;;;;5.55;3.40;;;22.90;87.70;;;;;;5094251;28;20071;-82
2023/04/30 13:13:47;;;;;;;7.35;3.70;;;22.90;87.60;;;;;;5094037;28;20039;-82
2023/04/30 13:16:51;;;;;;;5.07;3.53;;;22.80;87.90;;;;;;5095493;28;20043;-83
2023/04/30 13:19:55;;;;;;;7.60;3.67;;;22.90;87.80;;;;;;5094616;28;20040;-82
2023/04/30 13:22:59;;;;;;;5.10;3.60;;;23.00;87.30;;;;;;5094499;28;20047;-81
2023/04/30 13:26:03;;;;;;;4.28;3.60;;;22.90;87.10;;;;;;5095409;28;20068;-83
2023/04/30 13:29:08;;;;;;;6.13;3.42;;;22.90;87.10;;;;;;5094331;28;20039;-82
2023/04/30 13:32:12;;;;;;;7.25;3.53;;;22.90;87.40;;;;;;5093678;28;20039;-82
2023/04/30 13:35:16;;;;;;;5.35;2.95;;;22.90;87.10;;;;;;5093166;28;20051;-80
2023/04/30 13:38:20;;;;;;;5.55;3.50;;;22.80;87.40;;;;;;5091787;28;20043;-80
2023/04/30 13:41:25;;;;;;;11.63;7.55;;;22.90;87.70;;;;;;5092177;28;20075;-79
2023/04/30 13:44:31;;;;;;;12.55;7.70;;;22.90;88.60;;;;;;5092464;28;20046;-80
2023/04/30 13:47:35;;;;;;;12.07;6.78;;;22.90;89.60;;;;;;5092346;28;20035;-78
2023/04/30 13:50:40;;;;;;;12.93;8.20;;;22.80;89.90;;;;;;5092329;28;20047;-79
2023/04/30 13:53:43;;;;;;;12.27;7.20;;;22.80;90.10;;;;;;5092090;28;20414;-78
2023/04/30 13:56:48;;;;;;;15.68;7.95;;;22.80;90.10;;;;;;5092362;28;20059;-77
2023/04/30 13:59:53;;;;;;;14.07;6.82;;;22.80;90.50;;;;;;5092024;28;20043;-78
2023/04/30 14:02:57;;;;;;;12.32;6.50;;;22.80;90.20;;;;;;5092105;28;20055;-79
2023/04/30 14:06:01;;;;;;;10.60;6.68;;;22.70;90.10;;;;;;5091030;28;20051;-80
2023/04/30 14:09:05;;;;;;;12.90;6.03;;;22.70;90.20;;;;;;5091278;28;20043;-79
2023/04/30 14:12:09;;;;;;;9.40;5.85;;;22.70;90.40;;;;;;5091886;28;20502;-78
2023/04/30 14:15:15;;;;;;;11.45;5.80;;;22.70;90.70;;;;;;5091936;28;20399;-79
2023/04/30 14:18:21;;;;;;;8.02;4.82;;;22.70;90.70;;;;;;5091992;28;20519;-79
2023/04/30 14:21:27;;;;;;;12.18;6.22;;;22.80;90.80;;;;;;5091571;28;20039;-79
2023/04/30 14:24:31;;;;;;;7.43;5.60;;;22.60;90.80;;;;;;5091479;28;20078;-78
2023/04/30 14:27:35;;;;;;;11.85;6.60;;;22.60;90.90;;;;;;5091328;28;20051;-79
2023/04/30 14:30:40;;;;;;;11.77;5.40;;;22.50;90.80;;;;;;5091626;28;20050;-79
2023/04/30 14:33:44;;;;;;;11.18;6.32;;;22.50;90.90;;;;;;5091194;28;20043;-78
2023/04/30 14:36:48;;;;;;;21.90;11.30;;;22.50;91.00;;;;;;5091612;28;20098;-80
2023/04/30 14:39:52;;;;;;;17.63;9.07;;;22.40;90.90;;;;;;5091323;28;20058;-78
2023/04/30 14:42:55;;;;;;;10.20;6.78;;;22.40;91.00;;;;;;5090762;28;20047;-79
2023/04/30 14:46:00;;;;;;;11.60;6.63;;;22.40;91.10;;;;;;5091050;28;20522;-78
2023/04/30 14:49:04;;;;;;;9.85;6.03;;;22.30;91.10;;;;;;5091262;28;20600;-79
2023/04/30 14:52:08;;;;;;;11.35;5.63;;;22.30;91.10;;;;;;5091418;28;20395;-79
2023/04/30 14:55:13;;;;;;;9.68;5.38;;;22.30;91.10;;;;;;5090224;28;20042;-80
2023/04/30 14:58:19;;;;;;;11.30;5.47;;;22.20;91.10;;;;;;5091260;28;20055;-79
2023/04/30 15:01:23;;;;;;;10.63;5.80;;;22.20;91.20;;;;;;5091139;28;20043;-79
2023/04/30 15:04:27;;;;;;;9.40;5.82;;;22.20;91.30;;;;;;5091070;28;20161;-78
2023/04/30 15:07:31;;;;;;;12.85;6.30;;;22.10;91.30;;;;;;5091313;28;20622;-78
2023/04/30 15:10:35;;;;;;;12.27;6.80;;;22.10;91.20;;;;;;5091264;28;20043;-79
2023/04/30 15:13:39;;;;;;;21.45;11.35;;;22.10;91.20;;;;;;5090776;28;20043;-77
2023/04/30 15:16:43;;;;;;;13.02;7.78;;;22.10;91.10;;;;;;5091159;28;20047;-77
2023/04/30 15:19:47;;;;;;;11.27;6.30;;;22.10;91.10;;;;;;5090785;28;20075;-78
2023/04/30 15:22:53;;;;;;;17.00;8.13;;;22.10;91.20;;;;;;5090078;28;20055;-79
2023/04/30 15:25:57;;;;;;;11.48;7.05;;;22.00;91.00;;;;;;5090642;28;20407;-79
2023/04/30 15:29:01;;;;;;;23.00;15.63;;;22.00;90.90;;;;;;5090869;28;20047;-80
2023/04/30 15:32:05;;;;;;;25.90;16.90;;;21.90;90.60;;;;;;5090733;28;20050;-78
2023/04/30 15:35:09;;;;;;;18.83;9.07;;;21.90;90.60;;;;;;5090995;28;20499;-80
2023/04/30 15:38:13;;;;;;;16.48;8.07;;;21.80;90.50;;;;;;5090206;28;20059;-78
2023/04/30 15:41:17;;;;;;;13.00;6.32;;;21.80;91.00;;;;;;5090190;28;20178;-80
2023/04/30 15:44:21;;;;;;;10.77;5.72;;;21.80;90.90;;;;;;5078303;28;20051;-78
2023/04/30 15:47:25;;;;;;;17.20;7.78;;;21.80;91.00;;;;;;5091113;28;20051;-79
2023/04/30 15:50:30;;;;;;;14.13;7.60;;;21.70;91.00;;;;;;5090319;28;20388;-79